createdAt,value
2022-08-21T00:00:52.518Z,20.2
2022-08-21T00:02:01.655Z,20.2
2022-08-21T00:03:10.797Z,20.3
2022-08-21T00:04:19.940Z,20.3
2022-08-21T00:05:29.078Z,20.2
2022-08-21T00:07:48.320Z,20.2
2022-08-21T00:08:58.440Z,20.2
2022-08-21T00:10:08.560Z,20.2
2022-08-21T00:11:18.696Z,20.2
2022-08-21T00:12:28.794Z,20.2
2022-08-21T00:13:38.909Z,20.2
2022-08-21T00:14:49.035Z,20.2
2022-08-21T00:15:59.151Z,20.2
2022-08-21T00:17:09.278Z,20.2
2022-08-21T00:18:19.387Z,20.2
2022-08-21T00:19:29.507Z,20.2
2022-08-21T00:20:39.616Z,20.2
2022-08-21T00:21:48.767Z,20.2
2022-08-21T00:22:58.870Z,20.2
2022-08-21T00:24:08.999Z,20.2
2022-08-21T00:25:19.117Z,20.2
2022-08-21T00:26:28.245Z,20.2
2022-08-21T00:27:38.378Z,20.2
2022-08-21T00:28:48.480Z,20.2
2022-08-21T00:29:58.598Z,20.1
2022-08-21T00:31:07.748Z,20.1
2022-08-21T00:32:16.876Z,20.1
2022-08-21T00:33:27.012Z,20.1
2022-08-21T00:34:37.122Z,20.1
2022-08-21T00:35:47.234Z,20.1
2022-08-21T00:36:57.360Z,20.1
2022-08-21T00:38:07.482Z,20.1
2022-08-21T00:39:17.584Z,20
2022-08-21T00:40:27.722Z,20
2022-08-21T00:41:37.826Z,20
2022-08-21T00:42:47.939Z,20
2022-08-21T00:43:58.067Z,20
2022-08-21T00:45:08.184Z,20
2022-08-21T00:46:18.300Z,20
2022-08-21T00:47:27.435Z,20.1
2022-08-21T00:48:37.569Z,20.1
2022-08-21T00:49:47.678Z,20.1
2022-08-21T00:50:57.783Z,20.1
2022-08-21T00:52:07.924Z,20
2022-08-21T00:53:18.034Z,20
2022-08-21T00:54:28.152Z,20
2022-08-21T00:55:37.286Z,20
2022-08-21T00:56:46.429Z,20
2022-08-21T00:57:55.565Z,20
2022-08-21T00:59:04.693Z,20
2022-08-21T01:00:14.812Z,20
2022-08-21T01:01:24.945Z,20
2022-08-21T01:03:44.192Z,20
2022-08-21T01:04:53.326Z,20
2022-08-21T01:06:03.459Z,20
2022-08-21T01:07:13.569Z,20
2022-08-21T01:08:23.680Z,20
2022-08-21T01:09:33.828Z,20
2022-08-21T01:10:43.920Z,19.9
2022-08-21T01:11:54.042Z,19.9
2022-08-21T01:13:04.164Z,19.9
2022-08-21T01:14:14.286Z,19.9
2022-08-21T01:15:24.397Z,20
2022-08-21T01:16:34.507Z,20
2022-08-21T01:17:44.640Z,19.9
2022-08-21T01:18:54.748Z,20
2022-08-21T01:20:03.893Z,20
2022-08-21T01:21:14.008Z,20
2022-08-21T01:22:24.120Z,20
2022-08-21T01:23:33.255Z,20
2022-08-21T01:24:42.389Z,19.9
2022-08-21T01:25:52.520Z,19.9
2022-08-21T01:27:02.632Z,19.9
2022-08-21T01:28:12.759Z,19.9
2022-08-21T01:29:22.875Z,19.9
2022-08-21T01:30:32.985Z,19.9
2022-08-21T01:31:43.106Z,19.9
2022-08-21T01:32:53.234Z,19.8
2022-08-21T01:34:03.348Z,19.8
2022-08-21T01:35:13.461Z,19.8
2022-08-21T01:36:23.579Z,19.8
2022-08-21T01:37:33.693Z,19.8
2022-08-21T01:38:43.822Z,19.8
2022-08-21T01:39:53.942Z,19.8
2022-08-21T01:41:03.068Z,19.8
2022-08-21T01:42:13.177Z,19.8
2022-08-21T01:43:23.303Z,19.8
2022-08-21T01:44:33.414Z,19.8
2022-08-21T01:45:43.546Z,19.8
2022-08-21T01:46:53.664Z,19.8
2022-08-21T01:48:02.799Z,19.8
2022-08-21T01:49:11.935Z,19.8
2022-08-21T01:50:22.049Z,19.8
2022-08-21T01:51:32.178Z,19.8
2022-08-21T01:52:42.293Z,19.8
2022-08-21T01:53:52.404Z,19.8
2022-08-21T01:55:02.534Z,19.8
2022-08-21T01:56:12.651Z,19.8
2022-08-21T01:57:22.754Z,19.8
2022-08-21T01:58:32.869Z,19.7
2022-08-21T01:59:42.986Z,19.7
2022-08-21T02:00:53.116Z,19.7
2022-08-21T02:02:03.232Z,19.7
2022-08-21T02:03:13.360Z,19.7
2022-08-21T02:04:22.490Z,19.7
2022-08-21T02:05:32.608Z,19.7
2022-08-21T02:07:52.834Z,19.6
2022-08-21T02:09:02.946Z,19.6
2022-08-21T02:10:13.078Z,19.6
2022-08-21T02:11:23.187Z,19.6
2022-08-21T02:12:33.318Z,19.6
2022-08-21T02:13:42.447Z,19.6
2022-08-21T02:14:51.580Z,19.6
2022-08-21T02:16:00.743Z,19.6
2022-08-21T02:17:09.870Z,19.5
2022-08-21T02:18:19.019Z,19.5
2022-08-21T02:19:28.142Z,19.5
2022-08-21T02:20:37.289Z,19.5
2022-08-21T02:21:46.419Z,19.5
2022-08-21T02:22:56.543Z,19.5
2022-08-21T02:24:06.669Z,19.5
2022-08-21T02:25:16.771Z,19.5
2022-08-21T02:26:26.894Z,19.4
2022-08-21T02:27:37.005Z,19.4
2022-08-21T02:28:47.141Z,19.4
2022-08-21T02:29:57.258Z,19.4
2022-08-21T02:31:07.374Z,19.4
2022-08-21T02:32:17.488Z,19.4
2022-08-21T02:33:27.604Z,19.4
2022-08-21T02:34:37.730Z,19.4
2022-08-21T02:35:47.832Z,19.3
2022-08-21T02:36:56.983Z,19.3
2022-08-21T02:38:07.082Z,19.3
2022-08-21T02:39:17.212Z,19.3
2022-08-21T02:40:27.337Z,19.3
2022-08-21T02:41:37.447Z,19.3
2022-08-21T02:42:47.563Z,19.3
2022-08-21T02:43:57.685Z,19.3
2022-08-21T02:45:06.833Z,19.3
2022-08-21T02:46:16.945Z,19.3
2022-08-21T02:47:27.066Z,19.3
2022-08-21T02:48:36.214Z,19.3
2022-08-21T02:49:45.348Z,19.2
2022-08-21T02:50:55.463Z,19.2
2022-08-21T02:52:05.574Z,19.2
2022-08-21T02:53:15.696Z,19.2
2022-08-21T02:54:25.822Z,19.2
2022-08-21T02:55:35.941Z,19.2
2022-08-21T02:56:46.047Z,19.2
2022-08-21T02:57:56.162Z,19.2
2022-08-21T02:59:06.285Z,19.1
2022-08-21T03:00:16.403Z,19.1
2022-08-21T03:01:26.525Z,19.1
2022-08-21T03:02:36.634Z,19.1
2022-08-21T03:03:46.748Z,19.1
2022-08-21T03:04:55.894Z,19.1
2022-08-21T03:06:06.011Z,19.1
2022-08-21T03:07:16.131Z,19.1
2022-08-21T03:08:26.245Z,19.1
2022-08-21T03:09:36.355Z,19.1
2022-08-21T03:10:46.479Z,19
2022-08-21T03:11:56.596Z,19.1
2022-08-21T03:13:05.735Z,19
2022-08-21T03:14:14.870Z,19
2022-08-21T03:15:24.996Z,19
2022-08-21T03:17:45.234Z,19
2022-08-21T03:18:55.350Z,19
2022-08-21T03:20:05.460Z,19
2022-08-21T03:21:15.591Z,19
2022-08-21T03:22:25.717Z,18.9
2022-08-21T03:23:35.823Z,18.9
2022-08-21T03:24:45.941Z,18.9
2022-08-21T03:27:06.171Z,18.9
2022-08-21T03:29:25.435Z,18.8
2022-08-21T03:30:34.577Z,18.8
2022-08-21T03:31:43.719Z,18.8
2022-08-21T03:32:52.860Z,18.8
2022-08-21T03:34:01.987Z,18.8
2022-08-21T03:35:12.121Z,18.8
2022-08-21T03:36:22.233Z,18.8
2022-08-21T03:37:32.348Z,18.8
2022-08-21T03:38:42.459Z,18.8
2022-08-21T03:39:52.589Z,18.8
2022-08-21T03:41:02.714Z,18.8
2022-08-21T03:42:12.831Z,18.8
2022-08-21T03:43:22.945Z,18.8
2022-08-21T03:44:33.059Z,18.8
2022-08-21T03:45:42.211Z,18.7
2022-08-21T03:46:51.339Z,18.7
2022-08-21T03:48:01.460Z,18.7
2022-08-21T03:49:11.572Z,18.7
2022-08-21T03:50:21.687Z,18.7
2022-08-21T03:51:31.821Z,18.7
2022-08-21T03:52:41.922Z,18.7
2022-08-21T03:53:52.037Z,18.7
2022-08-21T03:55:02.162Z,18.7
2022-08-21T03:56:12.286Z,18.7
2022-08-21T03:57:22.393Z,18.7
2022-08-21T03:58:32.510Z,18.7
2022-08-21T03:59:42.645Z,18.6
2022-08-21T04:00:52.756Z,18.6
2022-08-21T04:02:01.885Z,18.7
2022-08-21T04:09:02.593Z,18.6
2022-08-21T04:10:12.703Z,18.6
2022-08-21T04:11:21.849Z,18.6
2022-08-21T04:12:30.987Z,18.5
2022-08-21T04:13:41.112Z,18.5
2022-08-21T04:14:51.234Z,18.5
2022-08-21T04:16:01.339Z,18.5
2022-08-21T04:17:11.453Z,18.5
2022-08-21T04:18:21.589Z,18.5
2022-08-21T04:19:31.692Z,18.5
2022-08-21T04:20:40.834Z,18.5
2022-08-21T04:21:50.957Z,18.5
2022-08-21T04:23:01.083Z,18.5
2022-08-21T04:24:10.223Z,18.5
2022-08-21T04:25:19.349Z,18.5
2022-08-21T04:26:29.479Z,18.5
2022-08-21T04:27:39.590Z,18.5
2022-08-21T04:28:49.697Z,18.5
2022-08-21T04:29:59.833Z,18.4
2022-08-21T04:31:09.940Z,18.5
2022-08-21T04:32:20.056Z,18.5
2022-08-21T04:33:30.186Z,18.4
2022-08-21T04:34:40.295Z,18.4
2022-08-21T04:35:50.406Z,18.5
2022-08-21T04:37:00.532Z,18.5
2022-08-21T04:38:10.658Z,18.5
2022-08-21T04:39:20.778Z,18.5
2022-08-21T04:41:40.023Z,18.4
2022-08-21T04:42:50.139Z,18.4
2022-08-21T04:44:00.259Z,18.4
2022-08-21T04:45:10.377Z,18.5
2022-08-21T04:46:20.492Z,18.5
2022-08-21T04:47:30.610Z,18.5
2022-08-21T04:48:40.736Z,18.5
2022-08-21T04:49:49.880Z,18.4
2022-08-21T04:50:59.996Z,18.4
2022-08-21T04:52:09.131Z,18.5
2022-08-21T04:53:18.274Z,18.5
2022-08-21T04:55:38.509Z,18.4
2022-08-21T04:56:48.634Z,18.4
2022-08-21T04:57:58.745Z,18.4
2022-08-21T04:59:08.859Z,18.4
2022-08-21T05:00:18.969Z,18.5
2022-08-21T05:01:29.091Z,18.5
2022-08-21T05:02:39.220Z,18.5
2022-08-21T05:03:49.335Z,18.4
2022-08-21T05:04:59.449Z,18.4
2022-08-21T05:06:09.576Z,18.5
2022-08-21T05:07:19.680Z,18.5
2022-08-21T05:08:28.823Z,18.5
2022-08-21T05:09:38.941Z,18.5
2022-08-21T05:10:49.052Z,18.5
2022-08-21T05:11:59.178Z,18.5
2022-08-21T05:13:09.293Z,18.5
2022-08-21T05:14:19.413Z,18.5
2022-08-21T05:15:29.523Z,18.5
2022-08-21T05:16:39.654Z,18.5
2022-08-21T05:17:48.801Z,18.5
2022-08-21T05:18:57.931Z,18.5
2022-08-21T05:20:07.078Z,18.5
2022-08-21T05:21:16.202Z,18.6
2022-08-21T05:22:26.328Z,18.5
2022-08-21T05:23:36.441Z,18.6
2022-08-21T05:24:46.561Z,18.6
2022-08-21T05:25:56.682Z,18.6
2022-08-21T05:27:06.790Z,18.6
2022-08-21T05:28:16.908Z,18.6
2022-08-21T05:29:27.037Z,18.6
2022-08-21T05:30:37.143Z,18.6
2022-08-21T05:31:47.273Z,18.6
2022-08-21T05:32:57.391Z,18.6
2022-08-21T05:34:07.509Z,18.6
2022-08-21T05:35:17.620Z,18.6
2022-08-21T05:36:27.854Z,18.7
2022-08-21T05:37:37.975Z,18.7
2022-08-21T05:38:48.098Z,18.7
2022-08-21T05:39:58.210Z,18.7
2022-08-21T05:41:08.334Z,18.7
2022-08-21T05:42:18.458Z,18.7
2022-08-21T05:43:28.567Z,18.7
2022-08-21T05:44:37.721Z,18.7
2022-08-21T05:45:47.837Z,18.7
2022-08-21T05:46:56.981Z,18.7
2022-08-21T05:48:06.108Z,18.7
2022-08-21T05:49:16.224Z,18.7
2022-08-21T05:50:26.336Z,18.7
2022-08-21T05:51:36.473Z,18.7
2022-08-21T05:52:46.590Z,18.6
2022-08-21T05:53:56.700Z,18.6
2022-08-21T05:55:06.809Z,18.6
2022-08-21T05:56:16.932Z,18.5
2022-08-21T05:57:27.060Z,18.5
2022-08-21T05:58:37.168Z,18.5
2022-08-21T05:59:47.286Z,18.5
2022-08-21T06:00:57.411Z,18.4
2022-08-21T06:02:07.524Z,18.4
2022-08-21T06:03:16.656Z,18.4
2022-08-21T06:04:26.784Z,18.4
2022-08-21T06:05:36.893Z,18.4
2022-08-21T06:06:47.020Z,18.4
2022-08-21T06:07:57.143Z,18.4
2022-08-21T06:09:07.259Z,18.4
2022-08-21T06:10:17.377Z,18.4
2022-08-21T06:11:26.515Z,18.4
2022-08-21T06:12:36.625Z,18.4
2022-08-21T06:13:45.771Z,18.4
2022-08-21T06:14:54.902Z,18.4
2022-08-21T06:16:05.021Z,18.4
2022-08-21T06:17:15.139Z,18.4
2022-08-21T06:18:25.269Z,18.4
2022-08-21T06:19:35.390Z,18.4
2022-08-21T06:20:45.499Z,18.4
2022-08-21T06:21:55.609Z,18.4
2022-08-21T06:23:05.737Z,18.4
2022-08-21T06:24:15.851Z,18.4
2022-08-21T06:25:25.964Z,18.4
2022-08-21T06:26:36.100Z,18.4
2022-08-21T06:27:46.205Z,18.4
2022-08-21T06:28:56.322Z,18.4
2022-08-21T06:30:05.461Z,18.4
2022-08-21T06:31:15.569Z,18.4
2022-08-21T06:33:35.824Z,18.4
2022-08-21T06:34:45.938Z,18.4
2022-08-21T06:35:56.055Z,18.5
2022-08-21T06:37:06.169Z,18.5
2022-08-21T06:38:16.277Z,18.5
2022-08-21T06:39:25.435Z,18.5
2022-08-21T06:40:34.571Z,18.5
2022-08-21T06:41:43.713Z,18.5
2022-08-21T06:42:52.850Z,18.5
2022-08-21T06:44:02.956Z,18.5
2022-08-21T06:45:13.079Z,18.5
2022-08-21T06:46:23.206Z,18.5
2022-08-21T06:48:43.435Z,18.5
2022-08-21T06:49:53.554Z,18.5
2022-08-21T06:51:03.670Z,18.5
2022-08-21T06:52:13.781Z,18.5
2022-08-21T06:53:23.917Z,18.5
2022-08-21T06:54:34.017Z,18.5
2022-08-21T06:55:44.136Z,18.5
2022-08-21T06:56:54.259Z,18.5
2022-08-21T06:58:03.393Z,18.5
2022-08-21T06:59:13.514Z,18.5
2022-08-21T07:00:23.621Z,18.5
2022-08-21T07:01:33.748Z,18.5
2022-08-21T07:02:43.864Z,18.5
2022-08-21T07:03:53.991Z,18.5
2022-08-21T07:05:04.105Z,18.6
2022-08-21T07:06:14.221Z,18.6
2022-08-21T07:07:23.360Z,18.6
2022-08-21T07:08:32.509Z,18.6
2022-08-21T07:09:41.649Z,18.6
2022-08-21T07:10:51.763Z,18.6
2022-08-21T07:12:00.888Z,18.7
2022-08-21T07:13:11.016Z,18.7
2022-08-21T07:14:21.137Z,18.7
2022-08-21T07:15:31.248Z,18.7
2022-08-21T07:16:41.376Z,18.7
2022-08-21T07:17:51.492Z,18.7
2022-08-21T07:19:01.606Z,18.8
2022-08-21T07:20:11.718Z,18.8
2022-08-21T07:21:21.831Z,18.8
2022-08-21T07:22:31.955Z,18.8
2022-08-21T07:23:42.082Z,18.8
2022-08-21T07:24:52.201Z,18.8
2022-08-21T07:27:12.435Z,18.8
2022-08-21T07:28:21.563Z,18.8
2022-08-21T07:29:31.680Z,18.8
2022-08-21T07:30:41.808Z,18.8
2022-08-21T07:31:51.917Z,18.8
2022-08-21T07:33:02.035Z,18.8
2022-08-21T07:34:12.157Z,18.9
2022-08-21T07:35:21.302Z,18.9
2022-08-21T07:36:31.423Z,18.8
2022-08-21T07:37:40.565Z,18.9
2022-08-21T07:38:50.797Z,18.9
2022-08-21T07:40:00.930Z,18.9
2022-08-21T07:41:11.032Z,18.9
2022-08-21T07:42:21.154Z,18.9
2022-08-21T07:43:31.275Z,18.9
2022-08-21T07:44:41.385Z,19
2022-08-21T07:45:51.502Z,19
2022-08-21T07:47:01.622Z,19
2022-08-21T07:48:11.743Z,19.1
2022-08-21T07:49:21.871Z,19.1
2022-08-21T07:50:31.989Z,19.1
2022-08-21T07:51:42.101Z,19.1
2022-08-21T07:52:52.215Z,19.1
2022-08-21T07:54:01.345Z,19.1
2022-08-21T07:55:11.471Z,19.2
2022-08-21T07:56:21.588Z,19.2
2022-08-21T07:57:31.714Z,19.2
2022-08-21T07:58:41.831Z,19.3
2022-08-21T07:59:51.943Z,19.3
2022-08-21T08:01:02.061Z,19.3
2022-08-21T08:02:11.196Z,19.4
2022-08-21T08:03:21.316Z,19.4
2022-08-21T08:04:30.459Z,19.4
2022-08-21T08:05:39.608Z,19.5
2022-08-21T08:06:49.715Z,19.5
2022-08-21T08:07:59.833Z,19.5
2022-08-21T08:09:09.958Z,19.5
2022-08-21T08:10:20.070Z,19.6
2022-08-21T08:11:30.197Z,19.6
2022-08-21T08:12:40.308Z,19.6
2022-08-21T08:13:50.419Z,19.7
2022-08-21T08:14:59.563Z,19.7
2022-08-21T08:16:09.691Z,19.7
2022-08-21T08:17:19.807Z,19.7
2022-08-21T08:18:29.920Z,19.7
2022-08-21T08:19:40.034Z,19.8
2022-08-21T08:20:50.167Z,19.8
2022-08-21T08:22:00.280Z,19.8
2022-08-21T08:23:10.388Z,19.8
2022-08-21T08:24:20.503Z,19.8
2022-08-21T08:25:30.622Z,19.9
2022-08-21T08:26:40.740Z,19.9
2022-08-21T08:27:50.859Z,19.9
2022-08-21T08:29:00.006Z,20
2022-08-21T08:30:09.146Z,20
2022-08-21T08:31:19.258Z,20
2022-08-21T08:32:28.404Z,20
2022-08-21T08:33:37.538Z,20
2022-08-21T08:34:47.660Z,20
2022-08-21T08:35:57.770Z,20.1
2022-08-21T08:37:07.890Z,20.1
2022-08-21T08:38:18.023Z,20.1
2022-08-21T08:39:28.134Z,20.1
2022-08-21T08:40:38.252Z,20.1
2022-08-21T08:41:48.363Z,20.2
2022-08-21T08:42:58.487Z,20.2
2022-08-21T08:44:08.605Z,20.2
2022-08-21T08:45:18.729Z,20.2
2022-08-21T08:46:28.849Z,20.2
2022-08-21T08:47:38.968Z,20.2
2022-08-21T08:48:48.087Z,20.2
2022-08-21T08:49:58.209Z,20.2
2022-08-21T08:51:08.329Z,20.2
2022-08-21T08:52:18.453Z,20.2
2022-08-21T08:53:28.556Z,20.2
2022-08-21T08:54:38.683Z,20.2
2022-08-21T08:55:48.802Z,20.2
2022-08-21T08:56:57.943Z,20.2
2022-08-21T08:58:07.000Z,20.2
2022-08-21T08:59:17.200Z,20.2
2022-08-21T09:00:26.345Z,20.2
2022-08-21T09:01:35.483Z,20.2
2022-08-21T09:02:45.590Z,20.2
2022-08-21T09:03:55.702Z,20.2
2022-08-21T09:05:05.830Z,20.3
2022-08-21T09:06:15.953Z,20.3
2022-08-21T09:07:26.064Z,20.3
2022-08-21T09:08:36.176Z,20.3
2022-08-21T09:09:46.313Z,20.4
2022-08-21T09:10:56.414Z,20.4
2022-08-21T09:12:06.529Z,20.4
2022-08-21T09:13:16.664Z,20.4
2022-08-21T09:14:26.784Z,20.5
2022-08-21T09:15:36.892Z,20.5
2022-08-21T09:16:46.032Z,20.5
2022-08-21T09:17:56.145Z,20.5
2022-08-21T09:19:06.254Z,20.5
2022-08-21T09:20:16.377Z,20.6
2022-08-21T09:21:26.503Z,20.6
2022-08-21T09:22:36.619Z,20.6
2022-08-21T09:23:46.744Z,20.6
2022-08-21T09:24:55.879Z,20.6
2022-08-21T09:26:05.013Z,20.7
2022-08-21T09:27:15.136Z,20.7
2022-08-21T09:28:25.251Z,20.7
2022-08-21T09:29:34.402Z,20.7
2022-08-21T09:30:43.530Z,20.7
2022-08-21T09:31:53.641Z,20.7
2022-08-21T09:33:03.757Z,20.7
2022-08-21T09:34:13.873Z,20.7
2022-08-21T09:35:24.001Z,20.7
2022-08-21T09:36:34.124Z,20.7
2022-08-21T09:37:44.236Z,20.7
2022-08-21T09:38:54.360Z,20.7
2022-08-21T09:40:04.470Z,20.7
2022-08-21T09:41:14.579Z,20.7
2022-08-21T09:42:24.714Z,20.7
2022-08-21T09:43:34.818Z,20.7
2022-08-21T09:44:44.947Z,20.8
2022-08-21T09:45:55.053Z,20.8
2022-08-21T09:47:04.197Z,20.8
2022-08-21T09:48:14.317Z,20.8
2022-08-21T09:49:24.426Z,20.8
2022-08-21T09:50:34.549Z,20.8
2022-08-21T09:51:44.658Z,20.8
2022-08-21T09:52:54.780Z,20.8
2022-08-21T09:54:03.928Z,20.8
2022-08-21T09:55:13.066Z,20.9
2022-08-21T09:56:22.215Z,20.9
2022-08-21T09:57:31.332Z,20.9
2022-08-21T09:58:41.462Z,20.9
2022-08-21T09:59:51.578Z,20.9
2022-08-21T10:01:01.696Z,20.9
2022-08-21T10:02:11.807Z,20.8
2022-08-21T10:03:21.930Z,20.8
2022-08-21T10:04:32.044Z,20.8
2022-08-21T10:05:42.169Z,20.8
2022-08-21T10:06:52.294Z,20.8
2022-08-21T10:08:02.392Z,20.8
2022-08-21T10:09:12.516Z,20.8
2022-08-21T10:10:22.632Z,20.8
2022-08-21T10:11:32.753Z,20.8
2022-08-21T10:12:42.877Z,20.8
2022-08-21T10:13:52.004Z,20.8
2022-08-21T10:15:02.116Z,20.9
2022-08-21T10:16:12.237Z,20.9
2022-08-21T10:17:22.358Z,20.9
2022-08-21T10:18:32.473Z,20.9
2022-08-21T10:19:42.599Z,20.9
2022-08-21T10:20:51.745Z,21
2022-08-21T10:22:00.870Z,21
2022-08-21T10:23:10.000Z,21
2022-08-21T10:24:19.146Z,21
2022-08-21T10:25:29.280Z,21
2022-08-21T10:26:39.383Z,21.1
2022-08-21T10:27:49.512Z,21.1
2022-08-21T10:30:09.741Z,21.2
2022-08-21T10:31:19.867Z,21.2
2022-08-21T10:32:29.980Z,21.2
2022-08-21T10:33:40.094Z,21.2
2022-08-21T10:34:50.238Z,21.3
2022-08-21T10:36:00.323Z,21.3
2022-08-21T10:37:10.449Z,21.4
2022-08-21T10:38:20.575Z,21.4
2022-08-21T10:39:29.699Z,21.5
2022-08-21T10:40:39.824Z,21.5
2022-08-21T10:41:49.937Z,21.6
2022-08-21T10:43:00.046Z,21.6
2022-08-21T10:44:10.164Z,21.6
2022-08-21T10:45:20.283Z,21.6
2022-08-21T10:46:30.418Z,21.6
2022-08-21T10:47:40.534Z,21.6
2022-08-21T10:48:49.663Z,21.6
2022-08-21T10:49:58.800Z,21.6
2022-08-21T10:51:08.922Z,21.6
2022-08-21T10:52:18.078Z,21.6
2022-08-21T10:53:27.201Z,21.6
2022-08-21T10:54:37.315Z,21.6
2022-08-21T10:55:47.446Z,21.6
2022-08-21T10:56:57.553Z,21.6
2022-08-21T10:58:07.671Z,21.6
2022-08-21T10:59:17.796Z,21.5
2022-08-21T11:00:27.914Z,21.5
2022-08-21T11:01:38.028Z,21.5
2022-08-21T11:02:48.147Z,21.5
2022-08-21T11:03:58.255Z,21.5
2022-08-21T11:05:08.376Z,21.5
2022-08-21T11:06:18.506Z,21.6
2022-08-21T11:07:28.612Z,21.6
2022-08-21T11:08:37.747Z,21.7
2022-08-21T11:09:47.874Z,21.7
2022-08-21T11:10:57.991Z,21.8
2022-08-21T11:12:08.103Z,21.8
2022-08-21T11:13:18.229Z,21.8
2022-08-21T11:14:28.341Z,21.7
2022-08-21T11:15:38.452Z,21.7
2022-08-21T11:16:47.613Z,21.8
2022-08-21T11:17:56.749Z,21.8
2022-08-21T11:19:06.862Z,21.8
2022-08-21T11:20:16.983Z,21.9
2022-08-21T11:21:27.086Z,21.9
2022-08-21T11:22:37.208Z,21.9
2022-08-21T11:23:47.322Z,22
2022-08-21T11:24:57.442Z,22
2022-08-21T11:26:07.566Z,22
2022-08-21T11:27:17.681Z,22
2022-08-21T11:28:27.792Z,22
2022-08-21T11:29:37.908Z,22
2022-08-21T11:31:58.163Z,21.9
2022-08-21T11:33:07.306Z,22
2022-08-21T11:34:17.408Z,22
2022-08-21T11:35:27.522Z,22
2022-08-21T11:36:37.634Z,22
2022-08-21T11:37:47.765Z,22.1
2022-08-21T11:38:57.870Z,22.1
2022-08-21T11:40:08.002Z,22.2
2022-08-21T11:41:18.118Z,22.2
2022-08-21T11:42:27.259Z,22.3
2022-08-21T11:43:36.396Z,22.4
2022-08-21T11:44:45.527Z,22.4
2022-08-21T11:45:54.672Z,22.5
2022-08-21T11:47:04.791Z,22.6
2022-08-21T11:48:14.915Z,22.7
2022-08-21T11:49:25.013Z,22.9
2022-08-21T11:50:35.137Z,23.1
2022-08-21T11:51:45.253Z,23.2
2022-08-21T11:52:55.375Z,23.3
2022-08-21T11:54:05.485Z,23.4
2022-08-21T11:55:15.613Z,23.5
2022-08-21T11:56:25.730Z,23.6
2022-08-21T11:57:35.852Z,23.7
2022-08-21T11:58:45.966Z,23.8
2022-08-21T11:59:56.094Z,23.8
2022-08-21T12:01:05.226Z,23.8
2022-08-21T12:02:15.340Z,23.8
2022-08-21T12:03:25.462Z,23.8
2022-08-21T12:04:35.580Z,23.9
2022-08-21T12:05:45.693Z,23.9
2022-08-21T12:06:55.815Z,23.8
2022-08-21T12:08:05.920Z,23.8
2022-08-21T12:09:15.084Z,23.8
2022-08-21T12:10:24.205Z,23.8
2022-08-21T12:11:33.349Z,23.8
2022-08-21T12:12:42.497Z,23.8
2022-08-21T12:13:52.602Z,23.8
2022-08-21T12:15:02.719Z,23.9
2022-08-21T12:16:12.844Z,23.9
2022-08-21T12:17:22.951Z,23.9
2022-08-21T12:18:33.070Z,23.9
2022-08-21T12:19:43.202Z,23.9
2022-08-21T12:20:53.321Z,23.9
2022-08-21T12:23:13.549Z,24
2022-08-21T12:24:23.661Z,24.2
2022-08-21T12:25:33.797Z,24.3
2022-08-21T12:26:43.908Z,24.5
2022-08-21T12:27:53.043Z,24.6
2022-08-21T12:29:03.160Z,24.7
2022-08-21T12:30:13.266Z,24.8
2022-08-21T12:31:23.396Z,24.9
2022-08-21T12:32:33.505Z,25
2022-08-21T12:33:43.621Z,25.1
2022-08-21T12:34:53.749Z,25.1
2022-08-21T12:36:03.873Z,25
2022-08-21T12:37:13.987Z,25.1
2022-08-21T12:38:23.126Z,25.2
2022-08-21T12:39:32.252Z,25.1
2022-08-21T12:40:42.383Z,25.1
2022-08-21T12:41:52.501Z,25
2022-08-21T12:43:02.611Z,24.8
2022-08-21T12:44:12.734Z,24.7
2022-08-21T12:45:22.859Z,24.7
2022-08-21T12:46:32.977Z,24.8
2022-08-21T12:47:43.098Z,24.9
2022-08-21T12:48:53.197Z,25
2022-08-21T12:50:03.318Z,25.1
2022-08-21T12:51:13.440Z,25.2
2022-08-21T12:53:33.672Z,25.2
2022-08-21T12:54:42.816Z,25.3
2022-08-21T12:55:52.939Z,25.3
2022-08-21T12:57:03.038Z,25.2
2022-08-21T12:58:13.173Z,25.2
2022-08-21T12:59:23.282Z,25.1
2022-08-21T13:00:33.396Z,25
2022-08-21T13:01:43.518Z,25.1
2022-08-21T13:02:53.637Z,25.1
2022-08-21T13:04:02.790Z,25.2
2022-08-21T13:05:12.910Z,25.2
2022-08-21T13:06:22.036Z,25.2
2022-08-21T13:07:32.155Z,25.2
2022-08-21T13:08:42.266Z,25.2
2022-08-21T13:09:52.388Z,25.2
2022-08-21T13:11:02.503Z,25.1
2022-08-21T13:12:12.616Z,25.1
2022-08-21T13:13:22.733Z,25.1
2022-08-21T13:14:32.869Z,25.1
2022-08-21T13:15:42.989Z,25.1
2022-08-21T13:16:53.102Z,25.2
2022-08-21T13:18:03.210Z,25.2
2022-08-21T13:19:13.327Z,25.3
2022-08-21T13:20:23.444Z,25.4
2022-08-21T13:21:32.592Z,25.5
2022-08-21T13:22:42.708Z,25.6
2022-08-21T13:23:52.820Z,25.6
2022-08-21T13:25:02.947Z,25.8
2022-08-21T13:26:13.050Z,25.9
2022-08-21T13:27:23.170Z,26
2022-08-21T13:28:32.319Z,26.1
2022-08-21T13:29:41.459Z,26
2022-08-21T13:30:51.571Z,25.9
2022-08-21T13:32:00.708Z,25.9
2022-08-21T13:33:10.825Z,25.9
2022-08-21T13:34:19.974Z,25.9
2022-08-21T13:35:29.120Z,25.8
2022-08-21T13:36:38.257Z,25.7
2022-08-21T13:37:48.381Z,25.7
2022-08-21T13:38:57.512Z,25.7
2022-08-21T13:40:07.624Z,25.7
2022-08-21T13:41:17.754Z,25.7
2022-08-21T13:42:27.854Z,25.7
2022-08-21T13:43:37.975Z,25.8
2022-08-21T13:44:48.091Z,25.9
2022-08-21T13:45:58.225Z,26
2022-08-21T13:47:08.329Z,26.1
2022-08-21T13:48:18.448Z,26.2
2022-08-21T13:49:28.564Z,26.4
2022-08-21T13:50:38.681Z,26.5
2022-08-21T13:51:48.814Z,26.6
2022-08-21T13:52:58.925Z,26.6
2022-08-21T13:54:08.048Z,26.7
2022-08-21T13:55:18.166Z,26.9
2022-08-21T13:56:28.301Z,26.9
2022-08-21T13:57:38.402Z,26.9
2022-08-21T13:58:48.528Z,26.8
2022-08-21T13:59:58.654Z,26.8
2022-08-21T14:01:07.799Z,26.8
2022-08-21T14:02:16.924Z,26.7
2022-08-21T14:03:27.045Z,26.5
2022-08-21T14:04:36.179Z,26.3
2022-08-21T14:05:45.314Z,26.1
2022-08-21T14:06:55.448Z,26
2022-08-21T14:08:05.568Z,25.9
2022-08-21T14:09:15.685Z,25.9
2022-08-21T14:10:25.792Z,25.9
2022-08-21T14:11:35.913Z,26
2022-08-21T14:12:46.040Z,26
2022-08-21T14:13:56.144Z,26.1
2022-08-21T14:15:06.270Z,26.1
2022-08-21T14:16:16.377Z,26.1
2022-08-21T14:17:26.494Z,26.1
2022-08-21T14:18:36.625Z,26.1
2022-08-21T14:19:46.744Z,26.1
2022-08-21T14:20:55.873Z,26.1
2022-08-21T14:22:05.998Z,26.2
2022-08-21T14:23:16.103Z,26.2
2022-08-21T14:24:26.229Z,26.3
2022-08-21T14:25:36.347Z,26.3
2022-08-21T14:26:46.466Z,26.3
2022-08-21T14:27:56.587Z,26.2
2022-08-21T14:29:05.719Z,26.1
2022-08-21T14:30:14.855Z,25.9
2022-08-21T14:31:23.999Z,25.8
2022-08-21T14:32:33.145Z,25.6
2022-08-21T14:33:43.246Z,25.4
2022-08-21T14:34:53.371Z,25.2
2022-08-21T14:36:03.484Z,25
2022-08-21T14:37:13.614Z,24.8
2022-08-21T14:38:23.720Z,24.7
2022-08-21T14:40:43.953Z,24.6
2022-08-21T14:41:54.078Z,24.6
2022-08-21T14:43:04.191Z,24.5
2022-08-21T14:44:14.325Z,24.5
2022-08-21T14:45:24.439Z,24.4
2022-08-21T14:46:34.558Z,24.4
2022-08-21T14:47:43.696Z,24.4
2022-08-21T14:48:53.812Z,24.5
2022-08-21T14:50:03.926Z,24.4
2022-08-21T14:51:14.047Z,24.4
2022-08-21T14:52:24.162Z,24.4
2022-08-21T14:53:34.284Z,24.3
2022-08-21T14:54:44.398Z,24.3
2022-08-21T14:55:54.514Z,24.3
2022-08-21T14:57:03.660Z,24.3
2022-08-21T14:58:13.772Z,24.3
2022-08-21T14:59:22.910Z,24.3
2022-08-21T15:00:32.054Z,24.3
2022-08-21T15:01:42.163Z,24.4
2022-08-21T15:02:52.296Z,24.4
2022-08-21T15:04:02.415Z,24.4
2022-08-21T15:05:12.532Z,24.4
2022-08-21T15:06:22.634Z,24.4
2022-08-21T15:07:32.757Z,24.3
2022-08-21T15:08:42.871Z,24.3
2022-08-21T15:09:52.987Z,24.3
2022-08-21T15:11:03.111Z,24.3
2022-08-21T15:12:13.241Z,24.3
2022-08-21T15:13:23.344Z,24.3
2022-08-21T15:14:33.476Z,24.3
2022-08-21T15:15:42.601Z,24.3
2022-08-21T15:16:52.716Z,24.3
2022-08-21T15:18:02.836Z,24.3
2022-08-21T15:19:12.948Z,24.2
2022-08-21T15:20:23.066Z,24.2
2022-08-21T15:21:33.184Z,24.2
2022-08-21T15:22:43.309Z,24.2
2022-08-21T15:23:53.422Z,24.2
2022-08-21T15:25:02.581Z,24.1
2022-08-21T15:26:11.709Z,24.1
2022-08-21T15:27:21.831Z,24.1
2022-08-21T15:28:31.931Z,24.1
2022-08-21T15:29:42.060Z,24.1
2022-08-21T15:30:52.171Z,24
2022-08-21T15:32:02.291Z,24
2022-08-21T15:33:12.406Z,23.9
2022-08-21T15:34:22.525Z,23.9
2022-08-21T15:35:32.643Z,23.9
2022-08-21T15:36:42.772Z,23.8
2022-08-21T15:37:52.894Z,23.8
2022-08-21T15:39:03.010Z,23.8
2022-08-21T15:40:13.126Z,23.8
2022-08-21T15:41:22.251Z,23.7
2022-08-21T15:42:32.366Z,23.6
2022-08-21T15:43:42.488Z,23.6
2022-08-21T15:44:52.615Z,23.6
2022-08-21T15:46:02.730Z,23.5
2022-08-21T15:47:12.850Z,23.5
2022-08-21T15:48:22.956Z,23.4
2022-08-21T15:49:32.107Z,23.4
2022-08-21T15:50:41.243Z,23.4
2022-08-21T15:51:50.389Z,23.4
2022-08-21T15:53:00.504Z,23.3
2022-08-21T15:54:09.642Z,23.3
2022-08-21T15:55:18.785Z,23.3
2022-08-21T15:56:28.903Z,23.3
2022-08-21T15:57:39.020Z,23.3
2022-08-21T15:58:49.136Z,23.3
2022-08-21T15:59:59.252Z,23.2
2022-08-21T16:01:09.366Z,23.2